sensor_id;sensor_type;location;lat;lon;timestamp;P1;durP1;ratioP1;P2;durP2;ratioP2
6394;SDS011;3230;42.588;23.358;2023-02-28T00:00:08;120.03;;;14.80;;
6394;SDS011;3230;42.588;23.358;2023-02-28T00:02:35;42.78;;;13.10;;
6394;SDS011;3230;42.588;23.358;2023-02-28T00:05:01;35.55;;;12.35;;
6394;SDS011;3230;42.588;23.358;2023-02-28T00:07:28;33.72;;;12.73;;
6394;SDS011;3230;42.588;23.358;2023-02-28T00:09:53;38.67;;;10.83;;
6394;SDS011;3230;42.588;23.358;2023-02-28T00:12:18;80.47;;;11.43;;
6394;SDS011;3230;42.588;23.358;2023-02-28T00:14:44;42.67;;;10.03;;
6394;SDS011;3230;42.588;23.358;2023-02-28T00:17:09;57.97;;;10.43;;
6394;SDS011;3230;42.588;23.358;2023-02-28T00:19:34;34.23;;;10.80;;
6394;SDS011;3230;42.588;23.358;2023-02-28T00:21:59;24.00;;;10.83;;
6394;SDS011;3230;42.588;23.358;2023-02-28T00:24:25;29.50;;;13.20;;
6394;SDS011;3230;42.588;23.358;2023-02-28T00:26:50;28.90;;;11.63;;
6394;SDS011;3230;42.588;23.358;2023-02-28T00:29:15;55.37;;;17.00;;
6394;SDS011;3230;42.588;23.358;2023-02-28T00:31:40;28.93;;;10.97;;
6394;SDS011;3230;42.588;23.358;2023-02-28T00:34:06;14.13;;;6.77;;
6394;SDS011;3230;42.588;23.358;2023-02-28T00:36:31;17.57;;;7.03;;
6394;SDS011;3230;42.588;23.358;2023-02-28T00:38:56;10.20;;;3.40;;
6394;SDS011;3230;42.588;23.358;2023-02-28T00:41:21;14.70;;;5.77;;
6394;SDS011;3230;42.588;23.358;2023-02-28T00:43:47;14.23;;;7.20;;
6394;SDS011;3230;42.588;23.358;2023-02-28T00:46:12;12.87;;;6.20;;
6394;SDS011;3230;42.588;23.358;2023-02-28T00:48:37;20.17;;;7.27;;
6394;SDS011;3230;42.588;23.358;2023-02-28T00:51:03;20.80;;;7.60;;
6394;SDS011;3230;42.588;23.358;2023-02-28T00:53:28;17.50;;;7.20;;
6394;SDS011;3230;42.588;23.358;2023-02-28T00:55:54;14.80;;;7.27;;
6394;SDS011;3230;42.588;23.358;2023-02-28T00:58:19;14.50;;;6.73;;
6394;SDS011;3230;42.588;23.358;2023-02-28T01:00:44;13.73;;;6.63;;
6394;SDS011;3230;42.588;23.358;2023-02-28T01:03:13;13.77;;;5.43;;
6394;SDS011;3230;42.588;23.358;2023-02-28T01:05:39;12.13;;;5.20;;
6394;SDS011;3230;42.588;23.358;2023-02-28T01:08:05;10.70;;;4.83;;
6394;SDS011;3230;42.588;23.358;2023-02-28T01:10:31;24.60;;;6.90;;
6394;SDS011;3230;42.588;23.358;2023-02-28T01:12:56;15.83;;;7.33;;
6394;SDS011;3230;42.588;23.358;2023-02-28T01:15:21;15.70;;;7.27;;
6394;SDS011;3230;42.588;23.358;2023-02-28T01:17:47;12.37;;;6.00;;
6394;SDS011;3230;42.588;23.358;2023-02-28T01:20:12;13.43;;;6.80;;
6394;SDS011;3230;42.588;23.358;2023-02-28T01:22:37;13.30;;;7.00;;
6394;SDS011;3230;42.588;23.358;2023-02-28T01:25:03;15.53;;;7.23;;
6394;SDS011;3230;42.588;23.358;2023-02-28T01:27:28;16.03;;;7.43;;
6394;SDS011;3230;42.588;23.358;2023-02-28T01:29:53;12.83;;;7.07;;
6394;SDS011;3230;42.588;23.358;2023-02-28T01:32:19;12.03;;;6.57;;
6394;SDS011;3230;42.588;23.358;2023-02-28T01:34:44;15.53;;;7.80;;
6394;SDS011;3230;42.588;23.358;2023-02-28T01:37:09;15.87;;;7.63;;
6394;SDS011;3230;42.588;23.358;2023-02-28T01:39:34;16.20;;;6.13;;
6394;SDS011;3230;42.588;23.358;2023-02-28T01:42:00;11.80;;;7.00;;
6394;SDS011;3230;42.588;23.358;2023-02-28T01:47:09;22.77;;;10.00;;
6394;SDS011;3230;42.588;23.358;2023-02-28T01:49:35;13.93;;;8.23;;
6394;SDS011;3230;42.588;23.358;2023-02-28T01:52:00;15.57;;;8.47;;
6394;SDS011;3230;42.588;23.358;2023-02-28T01:54:26;16.23;;;7.90;;
6394;SDS011;3230;42.588;23.358;2023-02-28T01:56:55;14.20;;;7.10;;
6394;SDS011;3230;42.588;23.358;2023-02-28T01:59:23;14.10;;;6.43;;
6394;SDS011;3230;42.588;23.358;2023-02-28T02:01:50;16.33;;;7.90;;
6394;SDS011;3230;42.588;23.358;2023-02-28T02:04:15;12.90;;;7.40;;
6394;SDS011;3230;42.588;23.358;2023-02-28T02:06:42;12.30;;;6.43;;
6394;SDS011;3230;42.588;23.358;2023-02-28T02:09:08;12.95;;;6.22;;
6394;SDS011;3230;42.588;23.358;2023-02-28T02:11:33;15.63;;;5.87;;
6394;SDS011;3230;42.588;23.358;2023-02-28T02:14:10;18.27;;;7.30;;
6394;SDS011;3230;42.588;23.358;2023-02-28T02:37:19;10.25;;;3.70;;
6394;SDS011;3230;42.588;23.358;2023-02-28T02:39:53;8.65;;;3.75;;
6394;SDS011;3230;42.588;23.358;2023-02-28T02:42:28;9.38;;;4.80;;
6394;SDS011;3230;42.588;23.358;2023-02-28T02:45:01;7.70;;;3.45;;
6394;SDS011;3230;42.588;23.358;2023-02-28T02:47:28;11.50;;;3.13;;
6394;SDS011;3230;42.588;23.358;2023-02-28T02:49:55;10.05;;;3.40;;
6394;SDS011;3230;42.588;23.358;2023-02-28T02:52:23;5.50;;;3.13;;
6394;SDS011;3230;42.588;23.358;2023-02-28T02:54:50;17.73;;;3.08;;
6394;SDS011;3230;42.588;23.358;2023-02-28T02:57:22;11.70;;;3.60;;
6394;SDS011;3230;42.588;23.358;2023-02-28T02:59:48;14.77;;;2.78;;
6394;SDS011;3230;42.588;23.358;2023-02-28T03:02:14;18.90;;;4.18;;
6394;SDS011;3230;42.588;23.358;2023-02-28T03:04:42;22.00;;;4.18;;
6394;SDS011;3230;42.588;23.358;2023-02-28T03:07:08;13.23;;;4.03;;
6394;SDS011;3230;42.588;23.358;2023-02-28T03:09:34;14.17;;;4.67;;
6394;SDS011;3230;42.588;23.358;2023-02-28T03:12:00;11.63;;;4.60;;
6394;SDS011;3230;42.588;23.358;2023-02-28T03:22:31;5.72;;;3.22;;
6394;SDS011;3230;42.588;23.358;2023-02-28T03:25:07;7.03;;;3.90;;
6394;SDS011;3230;42.588;23.358;2023-02-28T03:27:41;8.45;;;4.55;;
6394;SDS011;3230;42.588;23.358;2023-02-28T03:35:28;8.30;;;4.87;;
6394;SDS011;3230;42.588;23.358;2023-02-28T03:38:00;7.25;;;4.28;;
6394;SDS011;3230;42.588;23.358;2023-02-28T03:40:30;7.10;;;4.47;;
6394;SDS011;3230;42.588;23.358;2023-02-28T03:42:57;17.50;;;6.53;;
6394;SDS011;3230;42.588;23.358;2023-02-28T03:45:25;13.52;;;6.05;;
6394;SDS011;3230;42.588;23.358;2023-02-28T03:50:20;16.50;;;7.20;;
6394;SDS011;3230;42.588;23.358;2023-02-28T03:52:50;13.50;;;6.30;;
6394;SDS011;3230;42.588;23.358;2023-02-28T03:55:18;13.23;;;5.82;;
6394;SDS011;3230;42.588;23.358;2023-02-28T03:57:47;10.47;;;5.77;;
6394;SDS011;3230;42.588;23.358;2023-02-28T04:00:35;10.50;;;5.85;;
6394;SDS011;3230;42.588;23.358;2023-02-28T04:03:00;18.45;;;5.65;;
6394;SDS011;3230;42.588;23.358;2023-02-28T04:05:26;15.20;;;5.20;;
6394;SDS011;3230;42.588;23.358;2023-02-28T04:07:51;21.60;;;5.60;;
6394;SDS011;3230;42.588;23.358;2023-02-28T04:10:17;17.20;;;6.37;;
6394;SDS011;3230;42.588;23.358;2023-02-28T04:12:43;23.43;;;6.57;;
6394;SDS011;3230;42.588;23.358;2023-02-28T04:15:08;10.17;;;3.97;;
6394;SDS011;3230;42.588;23.358;2023-02-28T04:17:33;7.70;;;3.50;;
6394;SDS011;3230;42.588;23.358;2023-02-28T04:19:58;8.03;;;3.13;;
6394;SDS011;3230;42.588;23.358;2023-02-28T04:22:24;4.60;;;2.60;;
6394;SDS011;3230;42.588;23.358;2023-02-28T04:24:52;12.00;;;3.72;;
6394;SDS011;3230;42.588;23.358;2023-02-28T04:27:19;7.90;;;4.10;;
6394;SDS011;3230;42.588;23.358;2023-02-28T04:29:44;13.10;;;4.90;;
6394;SDS011;3230;42.588;23.358;2023-02-28T04:32:10;10.47;;;5.80;;
6394;SDS011;3230;42.588;23.358;2023-02-28T04:34:35;20.13;;;6.47;;
6394;SDS011;3230;42.588;23.358;2023-02-28T04:37:01;13.40;;;6.20;;
6394;SDS011;3230;42.588;23.358;2023-02-28T04:39:26;12.70;;;5.77;;
6394;SDS011;3230;42.588;23.358;2023-02-28T04:41:52;15.60;;;5.60;;
6394;SDS011;3230;42.588;23.358;2023-02-28T04:44:17;6.97;;;4.77;;
6394;SDS011;3230;42.588;23.358;2023-02-28T04:46:42;14.40;;;5.67;;
6394;SDS011;3230;42.588;23.358;2023-02-28T04:49:08;6.77;;;3.87;;
6394;SDS011;3230;42.588;23.358;2023-02-28T04:51:35;16.15;;;5.50;;
6394;SDS011;3230;42.588;23.358;2023-02-28T04:54:00;18.70;;;7.90;;
6394;SDS011;3230;42.588;23.358;2023-02-28T04:56:25;18.40;;;5.57;;
6394;SDS011;3230;42.588;23.358;2023-02-28T04:58:51;20.03;;;6.03;;
6394;SDS011;3230;42.588;23.358;2023-02-28T05:01:19;18.77;;;6.55;;
6394;SDS011;3230;42.588;23.358;2023-02-28T05:03:45;21.08;;;8.55;;
6394;SDS011;3230;42.588;23.358;2023-02-28T05:06:11;31.77;;;8.70;;
6394;SDS011;3230;42.588;23.358;2023-02-28T05:08:36;26.35;;;7.85;;
6394;SDS011;3230;42.588;23.358;2023-02-28T05:11:02;30.43;;;8.37;;
6394;SDS011;3230;42.588;23.358;2023-02-28T05:13:28;26.48;;;7.53;;
6394;SDS011;3230;42.588;23.358;2023-02-28T05:15:53;22.23;;;8.03;;
6394;SDS011;3230;42.588;23.358;2023-02-28T05:18:19;24.67;;;7.60;;
6394;SDS011;3230;42.588;23.358;2023-02-28T05:20:44;38.07;;;10.63;;
6394;SDS011;3230;42.588;23.358;2023-02-28T05:23:11;25.10;;;7.60;;
6394;SDS011;3230;42.588;23.358;2023-02-28T05:25:37;18.67;;;7.63;;
6394;SDS011;3230;42.588;23.358;2023-02-28T05:28:03;23.63;;;6.97;;
6394;SDS011;3230;42.588;23.358;2023-02-28T05:30:28;21.80;;;8.97;;
6394;SDS011;3230;42.588;23.358;2023-02-28T05:32:55;26.65;;;9.45;;
6394;SDS011;3230;42.588;23.358;2023-02-28T05:35:20;33.73;;;9.00;;
6394;SDS011;3230;42.588;23.358;2023-02-28T05:37:45;28.03;;;9.63;;
6394;SDS011;3230;42.588;23.358;2023-02-28T05:40:11;25.50;;;10.50;;
6394;SDS011;3230;42.588;23.358;2023-02-28T05:42:36;26.77;;;10.63;;
6394;SDS011;3230;42.588;23.358;2023-02-28T05:45:02;26.93;;;9.80;;
6394;SDS011;3230;42.588;23.358;2023-02-28T05:47:27;26.67;;;11.53;;
6394;SDS011;3230;42.588;23.358;2023-02-28T05:49:52;26.00;;;9.10;;
6394;SDS011;3230;42.588;23.358;2023-02-28T05:52:18;33.37;;;9.70;;
6394;SDS011;3230;42.588;23.358;2023-02-28T05:54:43;19.47;;;8.60;;
6394;SDS011;3230;42.588;23.358;2023-02-28T05:57:08;35.43;;;9.77;;
6394;SDS011;3230;42.588;23.358;2023-02-28T05:59:33;30.80;;;9.43;;
6394;SDS011;3230;42.588;23.358;2023-02-28T06:01:59;27.90;;;11.03;;
6394;SDS011;3230;42.588;23.358;2023-02-28T06:04:24;24.03;;;7.97;;
6394;SDS011;3230;42.588;23.358;2023-02-28T06:06:50;29.30;;;8.57;;
6394;SDS011;3230;42.588;23.358;2023-02-28T06:09:16;13.23;;;7.00;;
6394;SDS011;3230;42.588;23.358;2023-02-28T06:11:41;20.43;;;7.77;;
6394;SDS011;3230;42.588;23.358;2023-02-28T06:14:07;16.37;;;7.60;;
6394;SDS011;3230;42.588;23.358;2023-02-28T06:16:33;24.83;;;8.10;;
6394;SDS011;3230;42.588;23.358;2023-02-28T06:18:59;24.63;;;7.87;;
6394;SDS011;3230;42.588;23.358;2023-02-28T06:21:25;21.30;;;8.10;;
6394;SDS011;3230;42.588;23.358;2023-02-28T06:23:52;26.47;;;8.17;;
6394;SDS011;3230;42.588;23.358;2023-02-28T06:26:18;17.90;;;8.00;;
6394;SDS011;3230;42.588;23.358;2023-02-28T06:28:43;30.93;;;9.60;;
6394;SDS011;3230;42.588;23.358;2023-02-28T06:31:10;31.37;;;12.13;;
6394;SDS011;3230;42.588;23.358;2023-02-28T06:33:36;31.53;;;8.83;;
6394;SDS011;3230;42.588;23.358;2023-02-28T06:36:02;13.53;;;6.60;;
6394;SDS011;3230;42.588;23.358;2023-02-28T06:38:28;18.90;;;6.83;;
6394;SDS011;3230;42.588;23.358;2023-02-28T06:40:54;24.30;;;7.37;;
6394;SDS011;3230;42.588;23.358;2023-02-28T06:43:20;21.90;;;7.80;;
6394;SDS011;3230;42.588;23.358;2023-02-28T06:45:46;26.93;;;12.17;;
6394;SDS011;3230;42.588;23.358;2023-02-28T06:48:11;29.03;;;11.47;;
6394;SDS011;3230;42.588;23.358;2023-02-28T06:50:36;22.90;;;7.83;;
6394;SDS011;3230;42.588;23.358;2023-02-28T06:53:02;25.57;;;11.00;;
6394;SDS011;3230;42.588;23.358;2023-02-28T06:55:27;20.00;;;10.20;;
6394;SDS011;3230;42.588;23.358;2023-02-28T06:57:52;29.80;;;11.80;;
6394;SDS011;3230;42.588;23.358;2023-02-28T07:00:19;24.03;;;8.30;;
6394;SDS011;3230;42.588;23.358;2023-02-28T07:02:45;25.23;;;8.67;;
6394;SDS011;3230;42.588;23.358;2023-02-28T07:05:10;35.47;;;13.90;;
6394;SDS011;3230;42.588;23.358;2023-02-28T07:07:36;26.97;;;10.80;;
6394;SDS011;3230;42.588;23.358;2023-02-28T07:10:03;17.63;;;7.50;;
6394;SDS011;3230;42.588;23.358;2023-02-28T07:12:28;26.63;;;8.53;;
6394;SDS011;3230;42.588;23.358;2023-02-28T07:14:54;20.30;;;7.53;;
6394;SDS011;3230;42.588;23.358;2023-02-28T07:17:20;21.93;;;9.77;;
6394;SDS011;3230;42.588;23.358;2023-02-28T07:19:46;23.93;;;7.20;;
6394;SDS011;3230;42.588;23.358;2023-02-28T07:22:11;16.83;;;6.80;;
6394;SDS011;3230;42.588;23.358;2023-02-28T07:24:36;15.20;;;7.43;;
6394;SDS011;3230;42.588;23.358;2023-02-28T07:27:03;21.73;;;7.20;;
6394;SDS011;3230;42.588;23.358;2023-02-28T07:29:28;15.83;;;7.20;;
6394;SDS011;3230;42.588;23.358;2023-02-28T07:31:53;19.30;;;7.40;;
6394;SDS011;3230;42.588;23.358;2023-02-28T07:34:19;22.80;;;5.93;;
6394;SDS011;3230;42.588;23.358;2023-02-28T07:36:44;13.13;;;6.83;;
6394;SDS011;3230;42.588;23.358;2023-02-28T07:39:10;17.57;;;5.80;;
6394;SDS011;3230;42.588;23.358;2023-02-28T07:41:35;13.23;;;6.20;;
6394;SDS011;3230;42.588;23.358;2023-02-28T07:44:04;13.30;;;6.00;;
6394;SDS011;3230;42.588;23.358;2023-02-28T07:46:29;17.93;;;7.57;;
6394;SDS011;3230;42.588;23.358;2023-02-28T07:49:00;12.57;;;5.30;;
6394;SDS011;3230;42.588;23.358;2023-02-28T07:51:25;18.87;;;6.20;;
6394;SDS011;3230;42.588;23.358;2023-02-28T07:53:50;12.97;;;5.50;;
6394;SDS011;3230;42.588;23.358;2023-02-28T07:56:16;15.47;;;5.60;;
6394;SDS011;3230;42.588;23.358;2023-02-28T07:58:41;13.93;;;5.23;;
6394;SDS011;3230;42.588;23.358;2023-02-28T08:01:07;15.20;;;7.37;;
6394;SDS011;3230;42.588;23.358;2023-02-28T08:03:32;16.60;;;6.87;;
6394;SDS011;3230;42.588;23.358;2023-02-28T08:05:58;22.77;;;5.50;;
6394;SDS011;3230;42.588;23.358;2023-02-28T08:08:23;16.13;;;6.60;;
6394;SDS011;3230;42.588;23.358;2023-02-28T08:10:48;13.67;;;5.73;;
6394;SDS011;3230;42.588;23.358;2023-02-28T08:13:13;21.50;;;7.27;;
6394;SDS011;3230;42.588;23.358;2023-02-28T08:15:40;18.70;;;8.27;;
6394;SDS011;3230;42.588;23.358;2023-02-28T08:18:05;16.97;;;6.13;;
6394;SDS011;3230;42.588;23.358;2023-02-28T08:20:31;14.30;;;6.00;;
6394;SDS011;3230;42.588;23.358;2023-02-28T08:22:56;17.27;;;5.97;;
6394;SDS011;3230;42.588;23.358;2023-02-28T08:25:21;14.53;;;7.37;;
6394;SDS011;3230;42.588;23.358;2023-02-28T08:27:46;17.40;;;6.83;;
6394;SDS011;3230;42.588;23.358;2023-02-28T08:30:12;15.87;;;5.30;;
6394;SDS011;3230;42.588;23.358;2023-02-28T08:32:38;15.03;;;6.10;;
6394;SDS011;3230;42.588;23.358;2023-02-28T08:35:04;15.30;;;6.50;;
6394;SDS011;3230;42.588;23.358;2023-02-28T08:37:29;11.63;;;5.47;;
6394;SDS011;3230;42.588;23.358;2023-02-28T08:39:55;13.60;;;6.87;;
6394;SDS011;3230;42.588;23.358;2023-02-28T08:42:20;14.77;;;6.33;;
6394;SDS011;3230;42.588;23.358;2023-02-28T08:44:45;13.17;;;5.93;;
6394;SDS011;3230;42.588;23.358;2023-02-28T08:47:10;16.10;;;6.73;;
6394;SDS011;3230;42.588;23.358;2023-02-28T08:49:36;10.37;;;5.70;;
6394;SDS011;3230;42.588;23.358;2023-02-28T08:52:02;16.60;;;7.07;;
6394;SDS011;3230;42.588;23.358;2023-02-28T08:54:27;11.63;;;6.50;;
6394;SDS011;3230;42.588;23.358;2023-02-28T08:56:55;14.17;;;5.63;;
6394;SDS011;3230;42.588;23.358;2023-02-28T08:59:20;14.23;;;6.50;;
6394;SDS011;3230;42.588;23.358;2023-02-28T09:01:46;17.97;;;6.30;;
6394;SDS011;3230;42.588;23.358;2023-02-28T09:04:11;14.23;;;5.97;;
6394;SDS011;3230;42.588;23.358;2023-02-28T09:06:37;15.83;;;6.43;;
6394;SDS011;3230;42.588;23.358;2023-02-28T09:09:02;14.70;;;6.20;;
6394;SDS011;3230;42.588;23.358;2023-02-28T09:11:29;14.90;;;7.30;;
6394;SDS011;3230;42.588;23.358;2023-02-28T09:13:54;14.07;;;6.90;;
6394;SDS011;3230;42.588;23.358;2023-02-28T09:16:23;14.73;;;7.10;;
6394;SDS011;3230;42.588;23.358;2023-02-28T09:18:48;20.90;;;8.70;;
6394;SDS011;3230;42.588;23.358;2023-02-28T09:21:14;15.03;;;6.90;;
6394;SDS011;3230;42.588;23.358;2023-02-28T09:23:40;16.03;;;7.20;;
6394;SDS011;3230;42.588;23.358;2023-02-28T09:26:06;12.10;;;6.30;;
6394;SDS011;3230;42.588;23.358;2023-02-28T09:28:32;10.37;;;5.40;;
6394;SDS011;3230;42.588;23.358;2023-02-28T09:30:57;25.10;;;6.57;;
6394;SDS011;3230;42.588;23.358;2023-02-28T09:33:24;13.27;;;6.50;;
6394;SDS011;3230;42.588;23.358;2023-02-28T09:35:50;13.97;;;6.87;;
6394;SDS011;3230;42.588;23.358;2023-02-28T09:38:16;15.83;;;7.30;;
6394;SDS011;3230;42.588;23.358;2023-02-28T09:40:50;14.40;;;6.70;;
6394;SDS011;3230;42.588;23.358;2023-02-28T09:43:17;17.47;;;5.70;;
6394;SDS011;3230;42.588;23.358;2023-02-28T09:45:44;23.00;;;6.40;;
6394;SDS011;3230;42.588;23.358;2023-02-28T09:48:21;17.50;;;6.77;;
6394;SDS011;3230;42.588;23.358;2023-02-28T09:50:49;17.00;;;7.27;;
6394;SDS011;3230;42.588;23.358;2023-02-28T09:55:55;12.60;;;5.87;;
6394;SDS011;3230;42.588;23.358;2023-02-28T09:58:31;10.47;;;5.80;;
6394;SDS011;3230;42.588;23.358;2023-02-28T10:01:03;17.00;;;6.20;;
6394;SDS011;3230;42.588;23.358;2023-02-28T10:09:04;17.37;;;5.93;;
6394;SDS011;3230;42.588;23.358;2023-02-28T10:11:32;19.27;;;6.47;;
6394;SDS011;3230;42.588;23.358;2023-02-28T10:16:43;14.87;;;6.40;;
6394;SDS011;3230;42.588;23.358;2023-02-28T10:21:41;23.17;;;7.40;;
6394;SDS011;3230;42.588;23.358;2023-02-28T10:24:28;12.93;;;7.00;;
6394;SDS011;3230;42.588;23.358;2023-02-28T10:26:56;16.90;;;7.60;;
6394;SDS011;3230;42.588;23.358;2023-02-28T10:29:24;13.07;;;5.80;;
6394;SDS011;3230;42.588;23.358;2023-02-28T10:31:49;11.77;;;6.63;;
6394;SDS011;3230;42.588;23.358;2023-02-28T10:34:14;26.33;;;7.33;;
6394;SDS011;3230;42.588;23.358;2023-02-28T10:36:40;17.60;;;7.20;;
6394;SDS011;3230;42.588;23.358;2023-02-28T10:41:52;11.90;;;6.07;;
6394;SDS011;3230;42.588;23.358;2023-02-28T10:44:20;17.50;;;7.40;;
6394;SDS011;3230;42.588;23.358;2023-02-28T10:46:45;17.17;;;7.23;;
6394;SDS011;3230;42.588;23.358;2023-02-28T10:49:14;15.10;;;7.30;;
6394;SDS011;3230;42.588;23.358;2023-02-28T10:51:41;14.13;;;5.50;;
6394;SDS011;3230;42.588;23.358;2023-02-28T10:54:20;25.57;;;5.40;;
6394;SDS011;3230;42.588;23.358;2023-02-28T10:57:05;20.13;;;6.70;;
6394;SDS011;3230;42.588;23.358;2023-02-28T10:59:30;25.20;;;7.53;;
6394;SDS011;3230;42.588;23.358;2023-02-28T11:01:56;28.80;;;8.27;;
6394;SDS011;3230;42.588;23.358;2023-02-28T11:07:02;17.00;;;8.73;;
6394;SDS011;3230;42.588;23.358;2023-02-28T11:09:33;15.90;;;6.50;;
6394;SDS011;3230;42.588;23.358;2023-02-28T11:12:00;16.30;;;7.87;;
6394;SDS011;3230;42.588;23.358;2023-02-28T11:14:26;13.07;;;6.40;;
6394;SDS011;3230;42.588;23.358;2023-02-28T11:16:52;19.10;;;8.10;;
6394;SDS011;3230;42.588;23.358;2023-02-28T11:19:19;17.70;;;7.37;;
6394;SDS011;3230;42.588;23.358;2023-02-28T11:21:48;16.70;;;6.37;;
6394;SDS011;3230;42.588;23.358;2023-02-28T11:24:22;19.60;;;7.00;;
6394;SDS011;3230;42.588;23.358;2023-02-28T11:26:49;22.37;;;7.40;;
6394;SDS011;3230;42.588;23.358;2023-02-28T11:29:28;19.00;;;6.10;;
6394;SDS011;3230;42.588;23.358;2023-02-28T11:35:00;15.60;;;6.87;;
6394;SDS011;3230;42.588;23.358;2023-02-28T11:37:27;11.87;;;6.47;;
6394;SDS011;3230;42.588;23.358;2023-02-28T11:39:52;21.70;;;7.77;;
6394;SDS011;3230;42.588;23.358;2023-02-28T11:44:48;14.77;;;7.20;;
6394;SDS011;3230;42.588;23.358;2023-02-28T11:47:37;16.37;;;7.10;;
6394;SDS011;3230;42.588;23.358;2023-02-28T12:05:24;16.47;;;6.40;;
6394;SDS011;3230;42.588;23.358;2023-02-28T12:07:58;13.00;;;5.97;;
6394;SDS011;3230;42.588;23.358;2023-02-28T12:10:29;15.50;;;6.00;;
6394;SDS011;3230;42.588;23.358;2023-02-28T12:28:16;16.43;;;7.23;;
6394;SDS011;3230;42.588;23.358;2023-02-28T12:30:49;14.70;;;7.60;;
6394;SDS011;3230;42.588;23.358;2023-02-28T12:33:16;17.97;;;8.50;;
6394;SDS011;3230;42.588;23.358;2023-02-28T12:35:56;14.60;;;6.33;;
6394;SDS011;3230;42.588;23.358;2023-02-28T12:38:22;18.83;;;7.70;;
6394;SDS011;3230;42.588;23.358;2023-02-28T12:40:54;19.07;;;7.50;;
6394;SDS011;3230;42.588;23.358;2023-02-28T12:43:19;15.70;;;7.77;;
6394;SDS011;3230;42.588;23.358;2023-02-28T12:45:48;13.17;;;6.70;;
6394;SDS011;3230;42.588;23.358;2023-02-28T12:48:17;28.90;;;9.07;;
6394;SDS011;3230;42.588;23.358;2023-02-28T12:50:44;13.90;;;7.10;;
6394;SDS011;3230;42.588;23.358;2023-02-28T12:53:33;23.43;;;6.77;;
6394;SDS011;3230;42.588;23.358;2023-02-28T13:03:45;17.77;;;8.70;;
6394;SDS011;3230;42.588;23.358;2023-02-28T13:06:23;17.53;;;7.37;;
6394;SDS011;3230;42.588;23.358;2023-02-28T13:09:05;17.67;;;7.97;;
6394;SDS011;3230;42.588;23.358;2023-02-28T13:11:38;19.53;;;7.90;;
6394;SDS011;3230;42.588;23.358;2023-02-28T13:14:06;21.57;;;7.90;;
6394;SDS011;3230;42.588;23.358;2023-02-28T13:17:17;16.00;;;7.30;;
6394;SDS011;3230;42.588;23.358;2023-02-28T13:19:37;22.70;;;8.90;;
6394;SDS011;3230;42.588;23.358;2023-02-28T13:22:02;17.60;;;8.00;;
6394;SDS011;3230;42.588;23.358;2023-02-28T13:29:38;18.23;;;7.87;;
6394;SDS011;3230;42.588;23.358;2023-02-28T13:34:34;16.97;;;5.27;;
6394;SDS011;3230;42.588;23.358;2023-02-28T13:47:39;20.07;;;7.83;;
6394;SDS011;3230;42.588;23.358;2023-02-28T13:52:48;15.27;;;7.10;;
6394;SDS011;3230;42.588;23.358;2023-02-28T14:05:25;17.93;;;9.43;;
6394;SDS011;3230;42.588;23.358;2023-02-28T14:07:52;28.53;;;8.87;;
6394;SDS011;3230;42.588;23.358;2023-02-28T14:10:23;26.70;;;11.80;;
6394;SDS011;3230;42.588;23.358;2023-02-28T14:17:56;19.80;;;7.30;;
6394;SDS011;3230;42.588;23.358;2023-02-28T14:20:22;24.73;;;11.00;;
6394;SDS011;3230;42.588;23.358;2023-02-28T14:22:54;20.70;;;8.70;;
6394;SDS011;3230;42.588;23.358;2023-02-28T14:30:36;19.70;;;8.93;;
6394;SDS011;3230;42.588;23.358;2023-02-28T14:33:18;19.80;;;7.90;;
6394;SDS011;3230;42.588;23.358;2023-02-28T14:38:25;16.13;;;6.63;;
6394;SDS011;3230;42.588;23.358;2023-02-28T14:40:53;15.50;;;7.47;;
6394;SDS011;3230;42.588;23.358;2023-02-28T14:43:26;15.43;;;8.47;;
6394;SDS011;3230;42.588;23.358;2023-02-28T14:45:53;23.60;;;8.80;;
6394;SDS011;3230;42.588;23.358;2023-02-28T14:48:19;18.17;;;7.17;;
6394;SDS011;3230;42.588;23.358;2023-02-28T14:50:48;13.00;;;6.53;;
6394;SDS011;3230;42.588;23.358;2023-02-28T14:53:15;17.60;;;6.90;;
6394;SDS011;3230;42.588;23.358;2023-02-28T14:55:44;13.43;;;6.07;;
6394;SDS011;3230;42.588;23.358;2023-02-28T15:01:04;19.70;;;8.83;;
6394;SDS011;3230;42.588;23.358;2023-02-28T15:03:33;28.33;;;7.87;;
6394;SDS011;3230;42.588;23.358;2023-02-28T15:06:03;27.03;;;12.13;;
6394;SDS011;3230;42.588;23.358;2023-02-28T15:08:28;15.67;;;6.63;;
6394;SDS011;3230;42.588;23.358;2023-02-28T15:10:58;15.80;;;7.17;;
6394;SDS011;3230;42.588;23.358;2023-02-28T15:13:46;16.50;;;5.93;;
6394;SDS011;3230;42.588;23.358;2023-02-28T15:16:12;18.57;;;9.27;;
6394;SDS011;3230;42.588;23.358;2023-02-28T15:21:28;17.90;;;7.57;;
6394;SDS011;3230;42.588;23.358;2023-02-28T15:26:22;22.43;;;8.13;;
6394;SDS011;3230;42.588;23.358;2023-02-28T15:28:52;19.93;;;8.10;;
6394;SDS011;3230;42.588;23.358;2023-02-28T15:31:21;23.70;;;7.07;;
6394;SDS011;3230;42.588;23.358;2023-02-28T15:33:55;13.47;;;6.37;;
6394;SDS011;3230;42.588;23.358;2023-02-28T15:36:20;27.53;;;12.80;;
6394;SDS011;3230;42.588;23.358;2023-02-28T15:38:50;14.10;;;6.43;;
6394;SDS011;3230;42.588;23.358;2023-02-28T15:41:24;19.33;;;8.80;;
6394;SDS011;3230;42.588;23.358;2023-02-28T15:43:49;22.40;;;10.30;;
6394;SDS011;3230;42.588;23.358;2023-02-28T15:46:35;18.77;;;7.60;;
6394;SDS011;3230;42.588;23.358;2023-02-28T15:49:00;12.00;;;5.13;;
6394;SDS011;3230;42.588;23.358;2023-02-28T15:51:36;32.57;;;9.57;;
6394;SDS011;3230;42.588;23.358;2023-02-28T15:54:04;19.17;;;10.27;;
6394;SDS011;3230;42.588;23.358;2023-02-28T15:56:31;23.63;;;10.10;;
6394;SDS011;3230;42.588;23.358;2023-02-28T15:59:00;23.70;;;10.60;;
6394;SDS011;3230;42.588;23.358;2023-02-28T16:01:30;18.07;;;9.53;;
6394;SDS011;3230;42.588;23.358;2023-02-28T16:03:57;21.07;;;9.10;;
6394;SDS011;3230;42.588;23.358;2023-02-28T16:06:26;34.87;;;16.43;;
6394;SDS011;3230;42.588;23.358;2023-02-28T16:08:55;42.67;;;19.83;;
6394;SDS011;3230;42.588;23.358;2023-02-28T16:11:21;21.93;;;10.10;;
6394;SDS011;3230;42.588;23.358;2023-02-28T16:13:46;18.13;;;8.70;;
6394;SDS011;3230;42.588;23.358;2023-02-28T16:16:16;24.53;;;10.60;;
6394;SDS011;3230;42.588;23.358;2023-02-28T16:18:42;14.30;;;8.23;;
6394;SDS011;3230;42.588;23.358;2023-02-28T16:21:08;24.83;;;11.67;;
6394;SDS011;3230;42.588;23.358;2023-02-28T16:23:33;36.53;;;14.90;;
6394;SDS011;3230;42.588;23.358;2023-02-28T16:25:58;18.33;;;9.97;;
6394;SDS011;3230;42.588;23.358;2023-02-28T16:28:24;25.83;;;12.53;;
6394;SDS011;3230;42.588;23.358;2023-02-28T16:30:53;33.50;;;16.27;;
6394;SDS011;3230;42.588;23.358;2023-02-28T16:33:18;27.63;;;13.87;;
6394;SDS011;3230;42.588;23.358;2023-02-28T16:35:44;34.23;;;15.90;;
6394;SDS011;3230;42.588;23.358;2023-02-28T16:38:09;27.87;;;13.50;;
6394;SDS011;3230;42.588;23.358;2023-02-28T16:40:35;26.70;;;13.03;;
6394;SDS011;3230;42.588;23.358;2023-02-28T16:43:00;22.77;;;10.60;;
6394;SDS011;3230;42.588;23.358;2023-02-28T16:45:29;20.30;;;10.87;;
6394;SDS011;3230;42.588;23.358;2023-02-28T16:47:55;19.37;;;9.83;;
6394;SDS011;3230;42.588;23.358;2023-02-28T16:50:21;12.27;;;7.60;;
6394;SDS011;3230;42.588;23.358;2023-02-28T16:52:47;14.60;;;7.53;;
6394;SDS011;3230;42.588;23.358;2023-02-28T16:55:14;13.50;;;7.33;;
6394;SDS011;3230;42.588;23.358;2023-02-28T16:57:39;23.33;;;11.40;;
6394;SDS011;3230;42.588;23.358;2023-02-28T17:00:06;22.30;;;11.50;;
6394;SDS011;3230;42.588;23.358;2023-02-28T17:02:33;14.40;;;8.10;;
6394;SDS011;3230;42.588;23.358;2023-02-28T17:04:58;14.90;;;8.10;;
6394;SDS011;3230;42.588;23.358;2023-02-28T17:07:24;19.33;;;11.70;;
6394;SDS011;3230;42.588;23.358;2023-02-28T17:09:49;29.43;;;14.90;;
6394;SDS011;3230;42.588;23.358;2023-02-28T17:12:14;28.70;;;11.63;;
6394;SDS011;3230;42.588;23.358;2023-02-28T17:14:39;9.67;;;4.83;;
6394;SDS011;3230;42.588;23.358;2023-02-28T17:17:05;11.77;;;6.77;;
6394;SDS011;3230;42.588;23.358;2023-02-28T17:19:31;21.50;;;9.47;;